Time;durP1;ratioP1;P1;durP2;ratioP2;P2;SDS_P1;SDS_P2;PMS_P1;PMS_P2;Temp;Humidity;BMP_temperature;BMP_pressure;BME280_temperature;BME280_humidity;BME280_pressure;Samples;Min_cycle;Max_cycle;Signal;HPM_P1;HPM_P2
2022/07/14 00:01:58;;;;;;;14.75;2.33;;;14.30;99.90;;;;;;6213816;22;20030;-69
2022/07/14 00:04:24;;;;;;;17.85;2.67;;;14.20;99.90;;;;;;6242487;22;20020;-69
2022/07/14 00:06:50;;;;;;;12.70;2.80;;;14.10;99.90;;;;;;6240097;22;20024;-70
2022/07/14 00:09:15;;;;;;;16.33;2.67;;;14.00;99.90;;;;;;6217325;22;20023;-70
2022/07/14 00:11:41;;;;;;;13.45;2.75;;;14.00;99.90;;;;;;6215258;22;20527;-70
2022/07/14 00:14:07;;;;;;;15.23;2.65;;;13.90;99.90;;;;;;6217102;22;20024;-69
2022/07/14 00:16:32;;;;;;;11.13;2.33;;;13.90;99.90;;;;;;6241689;22;20024;-70
2022/07/14 00:18:58;;;;;;;8.90;2.42;;;13.80;99.90;;;;;;6240635;22;20446;-70
2022/07/14 00:21:24;;;;;;;6.65;1.95;;;13.80;99.90;;;;;;6217023;22;20020;-70
2022/07/14 00:23:49;;;;;;;7.60;1.98;;;13.80;99.90;;;;;;6240185;22;20076;-70
2022/07/14 00:26:15;;;;;;;9.27;2.00;;;13.80;99.90;;;;;;6241949;22;20019;-70
2022/07/14 00:28:41;;;;;;;7.45;1.75;;;13.80;99.90;;;;;;6240428;22;20016;-69
2022/07/14 00:31:08;;;;;;;10.30;2.38;;;13.80;99.90;;;;;;6217084;22;20028;-69
2022/07/14 00:33:34;;;;;;;14.18;2.40;;;13.80;99.90;;;;;;6241552;22;20018;-69
2022/07/14 00:36:00;;;;;;;9.02;2.15;;;13.80;99.90;;;;;;6240607;22;20015;-69
2022/07/14 00:38:25;;;;;;;11.50;2.28;;;13.80;99.90;;;;;;6242259;22;20328;-70
2022/07/14 00:40:51;;;;;;;13.93;2.53;;;13.70;99.90;;;;;;6240107;22;20057;-69
2022/07/14 00:43:17;;;;;;;10.25;2.50;;;13.70;99.90;;;;;;6257842;22;20051;-69
2022/07/14 00:45:43;;;;;;;8.95;2.15;;;13.60;99.90;;;;;;6239454;22;20454;-69
2022/07/14 00:48:10;;;;;;;13.45;2.47;;;13.60;99.90;;;;;;6267641;22;20027;-69
2022/07/14 00:50:41;;;;;;;10.77;2.13;;;13.50;99.90;;;;;;6266096;22;20026;-69
2022/07/14 00:53:08;;;;;;;13.75;2.33;;;13.40;99.90;;;;;;6269220;22;20154;-69
2022/07/14 00:55:35;;;;;;;10.60;1.90;;;13.30;99.90;;;;;;6267795;22;20071;-69
2022/07/14 00:58:00;;;;;;;12.98;2.45;;;13.30;99.90;;;;;;6265607;22;20058;-69
2022/07/14 01:00:26;;;;;;;18.20;2.97;;;13.20;99.90;;;;;;6267223;22;20020;-69
2022/07/14 01:02:52;;;;;;;16.38;2.67;;;13.20;99.90;;;;;;6265680;22;20073;-69
2022/07/14 01:05:19;;;;;;;14.05;2.88;;;13.10;99.90;;;;;;6269312;22;20023;-69
2022/07/14 01:07:46;;;;;;;18.02;3.30;;;13.10;99.90;;;;;;6267305;22;20047;-69
2022/07/14 01:10:13;;;;;;;8.25;2.60;;;13.10;99.90;;;;;;6269220;22;20030;-69
2022/07/14 01:12:44;;;;;;;14.45;2.88;;;13.00;99.90;;;;;;6268844;22;20069;-69
2022/07/14 01:15:11;;;;;;;15.52;2.50;;;13.00;99.90;;;;;;6268277;22;20034;-69
2022/07/14 01:17:37;;;;;;;12.25;2.70;;;13.00;99.90;;;;;;6269313;22;20024;-69
2022/07/14 01:20:04;;;;;;;12.68;2.67;;;13.00;99.90;;;;;;6267593;22;20015;-69
2022/07/14 01:22:30;;;;;;;14.82;1.98;;;13.00;99.90;;;;;;6269007;22;20098;-69
2022/07/14 01:24:56;;;;;;;15.05;2.80;;;13.00;99.90;;;;;;6241495;22;20066;-69
2022/07/14 01:27:21;;;;;;;11.77;2.70;;;13.00;99.90;;;;;;6269232;22;20015;-69
2022/07/14 01:29:47;;;;;;;15.82;2.75;;;12.90;99.90;;;;;;6268084;22;20097;-69
2022/07/14 01:32:13;;;;;;;19.42;2.45;;;12.90;99.90;;;;;;6217245;22;20014;-69
2022/07/14 01:34:39;;;;;;;12.82;2.35;;;12.90;99.90;;;;;;6269166;22;20023;-70
2022/07/14 01:37:04;;;;;;;12.48;2.55;;;12.90;99.90;;;;;;6267571;22;20023;-69
2022/07/14 01:39:30;;;;;;;8.90;2.42;;;12.90;99.90;;;;;;6269463;22;20030;-69
2022/07/14 01:41:56;;;;;;;10.43;2.30;;;12.80;99.90;;;;;;6266479;22;20088;-69
2022/07/14 01:44:22;;;;;;;12.48;2.20;;;12.80;99.90;;;;;;6269055;22;20023;-69
2022/07/14 01:46:47;;;;;;;12.15;2.10;;;12.70;99.90;;;;;;6241707;22;20047;-69
2022/07/14 01:49:14;;;;;;;14.63;2.75;;;12.60;99.90;;;;;;6268714;22;20024;-69
2022/07/14 01:51:40;;;;;;;11.95;2.25;;;12.50;99.90;;;;;;6268685;22;20024;-69
2022/07/14 01:54:05;;;;;;;14.23;2.95;;;12.50;99.90;;;;;;6267762;22;20024;-69
2022/07/14 01:56:32;;;;;;;18.50;2.45;;;12.40;99.90;;;;;;6269041;22;20030;-69
2022/07/14 01:59:00;;;;;;;14.02;2.42;;;12.40;99.90;;;;;;6266681;22;20080;-69
2022/07/14 02:01:42;;;;;;;14.77;2.25;;;12.40;99.90;;;;;;6268665;22;20019;-69
2022/07/14 02:04:15;;;;;;;9.15;2.42;;;12.30;99.90;;;;;;6244932;22;20023;-69
2022/07/14 02:06:43;;;;;;;14.20;2.50;;;12.30;99.90;;;;;;6268490;22;20342;-69
2022/07/14 02:09:09;;;;;;;14.23;2.33;;;12.30;99.90;;;;;;6269946;22;20045;-69
2022/07/14 02:14:19;;;;;;;14.35;2.53;;;12.30;99.90;;;;;;6268500;22;20031;-69
2022/07/14 02:16:45;;;;;;;7.78;2.53;;;12.30;99.90;;;;;;6267374;22;20032;-69
2022/07/14 02:19:11;;;;;;;8.55;2.45;;;12.30;99.90;;;;;;6242559;22;20092;-69
2022/07/14 02:21:39;;;;;;;11.07;2.60;;;12.30;99.90;;;;;;6267790;22;20416;-69
2022/07/14 02:24:06;;;;;;;8.57;2.33;;;12.30;99.90;;;;;;6241851;22;20439;-69
2022/07/14 02:26:32;;;;;;;12.63;2.88;;;12.30;99.90;;;;;;6217897;22;20020;-69
2022/07/14 02:28:58;;;;;;;12.73;2.42;;;12.20;99.90;;;;;;6268221;22;20073;-70
2022/07/14 02:31:23;;;;;;;7.30;2.10;;;12.20;99.90;;;;;;6268056;22;20020;-69
2022/07/14 02:33:49;;;;;;;12.93;2.25;;;12.20;99.90;;;;;;6266548;22;20023;-69
2022/07/14 02:36:15;;;;;;;11.05;3.17;;;12.10;99.90;;;;;;6268376;22;20027;-69
2022/07/14 02:38:41;;;;;;;9.65;2.38;;;12.20;99.90;;;;;;6266838;22;20057;-69
2022/07/14 02:41:07;;;;;;;6.97;2.28;;;12.20;99.90;;;;;;6268087;22;20358;-68
2022/07/14 02:43:34;;;;;;;10.43;2.47;;;12.20;99.90;;;;;;6267708;22;20020;-69
2022/07/14 02:46:01;;;;;;;9.88;2.88;;;12.20;99.90;;;;;;6240889;22;20414;-69
2022/07/14 02:48:28;;;;;;;13.48;2.30;;;12.20;99.90;;;;;;6268449;22;20087;-69
2022/07/14 02:50:59;;;;;;;13.77;2.28;;;12.20;99.90;;;;;;6266415;22;20015;-70
2022/07/14 02:53:24;;;;;;;10.13;2.10;;;12.20;99.90;;;;;;6242938;22;20347;-70
2022/07/14 02:55:50;;;;;;;12.30;2.67;;;12.10;99.90;;;;;;6266805;22;20015;-69
2022/07/14 02:58:18;;;;;;;10.52;2.40;;;12.10;99.90;;;;;;6242634;22;20019;-70
2022/07/14 03:00:43;;;;;;;14.70;2.95;;;12.10;99.90;;;;;;6267863;22;20732;-69
2022/07/14 03:03:10;;;;;;;12.85;2.47;;;12.10;99.90;;;;;;6267205;22;20023;-69
2022/07/14 03:05:36;;;;;;;14.30;2.78;;;12.10;99.90;;;;;;6268048;22;20028;-69
2022/07/14 03:08:02;;;;;;;9.90;2.50;;;12.10;99.90;;;;;;6265848;22;20312;-69
2022/07/14 03:10:28;;;;;;;10.65;2.55;;;12.10;99.90;;;;;;6242666;22;20019;-69
2022/07/14 03:12:54;;;;;;;12.35;3.15;;;12.20;99.90;;;;;;6266036;22;20020;-70
2022/07/14 03:15:19;;;;;;;12.23;2.70;;;12.20;99.90;;;;;;6268331;22;20031;-69
2022/07/14 03:17:45;;;;;;;11.27;2.03;;;12.20;99.90;;;;;;6266795;22;20016;-69
2022/07/14 03:20:12;;;;;;;18.30;2.70;;;12.20;99.90;;;;;;6267058;22;20023;-69
2022/07/14 03:22:38;;;;;;;9.55;2.72;;;12.20;99.90;;;;;;6217483;22;20047;-70
2022/07/14 03:25:07;;;;;;;8.93;2.30;;;12.20;99.90;;;;;;6267781;22;20130;-70
2022/07/14 03:27:35;;;;;;;14.00;2.92;;;12.20;99.90;;;;;;6270288;22;20012;-69
2022/07/14 03:30:04;;;;;;;11.38;2.33;;;12.10;99.90;;;;;;6240459;22;20023;-70
2022/07/14 03:32:30;;;;;;;13.43;2.53;;;12.10;99.90;;;;;;6268048;22;20100;-69
2022/07/14 03:34:57;;;;;;;5.40;1.92;;;12.00;99.90;;;;;;6266037;22;20055;-70
2022/07/14 03:37:23;;;;;;;12.68;1.90;;;12.00;99.90;;;;;;6267504;22;20442;-69
2022/07/14 03:39:49;;;;;;;11.90;2.10;;;12.00;99.90;;;;;;6242268;22;20016;-70
2022/07/14 03:42:15;;;;;;;8.50;1.90;;;12.00;99.90;;;;;;6265680;22;20341;-70
2022/07/14 03:44:42;;;;;;;9.23;2.25;;;12.00;99.90;;;;;;6267589;22;20030;-70
2022/07/14 03:47:07;;;;;;;12.02;3.72;;;12.00;99.90;;;;;;6266282;22;20054;-69
2022/07/14 03:49:33;;;;;;;11.25;2.40;;;12.00;99.90;;;;;;6267835;22;20019;-69
2022/07/14 03:51:59;;;;;;;13.13;2.08;;;12.00;99.90;;;;;;6265545;22;20443;-69
2022/07/14 03:54:25;;;;;;;14.52;2.35;;;11.90;99.90;;;;;;6267526;22;20076;-70
2022/07/14 03:56:50;;;;;;;12.35;2.28;;;11.90;99.90;;;;;;6267274;22;20051;-69
2022/07/14 03:59:16;;;;;;;10.23;2.40;;;11.80;99.90;;;;;;6240729;22;20390;-68
2022/07/14 04:01:42;;;;;;;12.43;2.55;;;11.80;99.90;;;;;;6267425;22;20035;-69
2022/07/14 04:04:07;;;;;;;10.65;2.45;;;11.90;99.90;;;;;;6265054;22;20070;-70
2022/07/14 04:06:33;;;;;;;12.05;2.60;;;11.80;99.90;;;;;;6268114;22;20130;-69
2022/07/14 04:09:00;;;;;;;17.70;3.08;;;11.90;99.90;;;;;;6265430;22;20403;-69
2022/07/14 04:11:26;;;;;;;14.05;3.15;;;11.90;99.90;;;;;;6267807;22;20331;-69
2022/07/14 04:13:52;;;;;;;16.33;2.75;;;12.00;99.90;;;;;;6266266;22;20027;-70
2022/07/14 04:16:17;;;;;;;8.95;2.25;;;12.00;99.90;;;;;;6266841;22;20030;-69
2022/07/14 04:18:43;;;;;;;8.90;2.80;;;12.10;99.90;;;;;;6267499;22;20099;-70
2022/07/14 04:21:12;;;;;;;11.20;2.60;;;12.10;99.90;;;;;;6265880;22;20017;-70
2022/07/14 04:23:38;;;;;;;10.82;2.38;;;12.10;99.90;;;;;;6242147;22;20015;-70
2022/07/14 04:26:05;;;;;;;15.98;2.45;;;12.10;99.90;;;;;;6264994;22;20020;-70
2022/07/14 04:28:31;;;;;;;10.43;2.60;;;12.10;99.90;;;;;;6267499;22;20050;-69
2022/07/14 04:30:57;;;;;;;7.45;2.40;;;12.10;99.90;;;;;;6265781;22;20016;-69
2022/07/14 04:33:23;;;;;;;13.00;2.53;;;12.10;99.90;;;;;;6267267;22;20047;-70
2022/07/14 04:35:49;;;;;;;14.00;2.58;;;12.00;99.90;;;;;;6266941;22;20030;-69
2022/07/14 04:38:16;;;;;;;11.77;2.20;;;12.00;99.90;;;;;;6267066;22;20015;-70
2022/07/14 04:40:52;;;;;;;16.92;2.83;;;12.00;99.90;;;;;;6243916;22;20015;-70
2022/07/14 04:43:18;;;;;;;9.80;2.28;;;12.10;99.90;;;;;;6216569;22;20019;-69
2022/07/14 04:45:48;;;;;;;16.80;3.22;;;12.10;99.90;;;;;;6269555;22;20059;-70
2022/07/14 04:48:14;;;;;;;13.27;3.10;;;12.10;99.90;;;;;;6267464;22;20339;-69
2022/07/14 04:53:24;;;;;;;11.43;2.70;;;12.20;99.90;;;;;;6268856;22;20016;-69
2022/07/14 04:55:49;;;;;;;9.40;2.63;;;12.40;99.90;;;;;;6268136;22;20334;-70
2022/07/14 04:58:16;;;;;;;13.30;5.55;;;12.40;99.90;;;;;;6269085;22;20074;-70
2022/07/14 05:00:42;;;;;;;16.33;7.78;;;12.50;99.90;;;;;;6242152;22;20591;-70
2022/07/14 05:03:07;;;;;;;19.75;8.40;;;12.60;99.90;;;;;;6269144;22;20642;-69
2022/07/14 05:05:33;;;;;;;20.60;10.52;;;12.70;99.90;;;;;;6267468;22;20102;-70
2022/07/14 05:07:59;;;;;;;16.02;6.95;;;12.80;99.90;;;;;;6269387;22;20020;-69
2022/07/14 05:10:25;;;;;;;13.23;7.20;;;12.90;99.90;;;;;;6242316;22;20019;-70
2022/07/14 05:12:50;;;;;;;14.50;6.13;;;13.00;99.90;;;;;;6270358;22;20026;-70
2022/07/14 05:15:16;;;;;;;14.52;5.88;;;13.20;99.90;;;;;;6268783;22;20024;-69
2022/07/14 05:17:43;;;;;;;18.52;7.00;;;13.30;99.90;;;;;;6267604;22;20102;-69
2022/07/14 05:20:09;;;;;;;19.10;7.53;;;13.40;99.90;;;;;;6243669;22;20019;-70
2022/07/14 05:22:37;;;;;;;17.02;5.28;;;13.50;99.90;;;;;;6267710;22;20020;-70
2022/07/14 05:25:07;;;;;;;17.60;5.22;;;13.60;99.90;;;;;;6269145;22;20019;-70
2022/07/14 05:27:33;;;;;;;18.80;6.00;;;13.70;99.90;;;;;;6242869;22;20062;-70
2022/07/14 05:29:58;;;;;;;12.88;7.05;;;13.90;99.90;;;;;;6268372;22;20019;-70
2022/07/14 05:32:24;;;;;;;13.82;6.68;;;14.00;99.90;;;;;;6269281;22;20030;-70
2022/07/14 05:34:50;;;;;;;14.80;10.13;;;14.00;99.90;;;;;;6267622;22;20016;-70
2022/07/14 05:37:16;;;;;;;19.33;10.23;;;14.20;99.90;;;;;;6268529;22;20545;-70
2022/07/14 05:39:41;;;;;;;22.17;14.40;;;14.30;99.90;;;;;;6216819;22;20016;-70
2022/07/14 05:42:07;;;;;;;31.63;15.93;;;14.40;99.90;;;;;;6242803;22;20030;-70
2022/07/14 05:44:34;;;;;;;11.77;6.18;;;14.50;99.90;;;;;;6267642;22;20347;-70
2022/07/14 05:47:00;;;;;;;13.88;2.03;;;14.70;99.90;;;;;;6269283;22;20026;-69
2022/07/14 05:49:26;;;;;;;8.48;1.65;;;15.00;99.90;;;;;;6267062;22;20058;-69
2022/07/14 05:51:51;;;;;;;12.15;1.92;;;15.00;99.90;;;;;;6267701;22;20046;-69
2022/07/14 05:54:17;;;;;;;4.57;1.17;;;15.10;99.90;;;;;;6242682;22;20019;-70
2022/07/14 05:56:43;;;;;;;6.45;1.20;;;15.20;99.90;;;;;;6241777;22;20018;-70
2022/07/14 05:59:08;;;;;;;8.05;1.40;;;15.20;99.90;;;;;;6243013;22;20023;-69
2022/07/14 06:01:34;;;;;;;9.57;1.60;;;15.30;99.90;;;;;;6267126;22;20020;-70
2022/07/14 06:04:00;;;;;;;5.15;1.10;;;15.40;99.90;;;;;;6268857;22;20027;-70
2022/07/14 06:06:26;;;;;;;10.52;1.00;;;15.40;99.90;;;;;;6266890;22;20055;-69
2022/07/14 06:08:51;;;;;;;7.80;1.30;;;15.50;99.90;;;;;;6270387;22;20104;-69
2022/07/14 06:11:18;;;;;;;6.40;1.75;;;15.50;99.90;;;;;;6268190;22;20020;-69
2022/07/14 06:13:45;;;;;;;3.92;1.25;;;15.50;99.90;;;;;;6267409;22;20015;-69
2022/07/14 06:16:12;;;;;;;8.20;1.00;;;15.60;99.90;;;;;;6268093;22;20026;-69
2022/07/14 06:18:38;;;;;;;4.55;1.08;;;15.60;99.90;;;;;;6267067;22;20012;-69
2022/07/14 06:21:09;;;;;;;7.63;1.10;;;15.70;99.90;;;;;;6268822;22;20026;-70
2022/07/14 06:23:36;;;;;;;5.47;0.98;;;15.80;99.90;;;;;;6241501;22;20034;-70
2022/07/14 06:26:11;;;;;;;11.25;1.48;;;15.80;99.90;;;;;;6270234;22;20020;-70
2022/07/14 06:28:38;;;;;;;4.65;1.17;;;15.80;99.90;;;;;;6268905;22;20099;-69
2022/07/14 06:31:04;;;;;;;6.05;0.95;;;15.90;99.90;;;;;;6266903;22;20016;-70
2022/07/14 06:33:30;;;;;;;7.55;1.27;;;15.90;99.90;;;;;;6267983;22;20058;-71
2022/07/14 06:35:56;;;;;;;7.07;1.55;;;15.90;99.90;;;;;;6241342;22;20331;-70
2022/07/14 06:38:22;;;;;;;6.03;1.40;;;16.00;99.90;;;;;;6267817;22;20057;-70
2022/07/14 06:40:47;;;;;;;8.80;2.40;;;16.10;99.90;;;;;;6266928;22;20082;-69
2022/07/14 06:43:13;;;;;;;5.75;1.00;;;16.20;99.90;;;;;;6267667;22;20415;-70
2022/07/14 06:45:39;;;;;;;2.35;0.70;;;16.20;99.90;;;;;;6242401;22;20024;-70
2022/07/14 06:48:05;;;;;;;6.82;1.13;;;16.30;99.90;;;;;;6267429;22;20012;-70
2022/07/14 06:50:33;;;;;;;3.03;0.82;;;16.30;99.90;;;;;;6267784;22;20122;-70
2022/07/14 06:52:58;;;;;;;2.53;0.63;;;16.40;99.90;;;;;;6266692;22;20328;-70
2022/07/14 06:55:24;;;;;;;4.15;1.08;;;16.40;99.90;;;;;;6242247;22;20031;-70
2022/07/14 06:57:50;;;;;;;6.35;0.70;;;16.50;99.90;;;;;;6266835;22;20391;-69
2022/07/14 07:00:16;;;;;;;7.35;1.58;;;16.60;99.90;;;;;;6267293;22;20020;-70
2022/07/14 07:02:42;;;;;;;5.50;1.48;;;16.80;99.90;;;;;;6267107;22;20020;-70
2022/07/14 07:08:00;;;;;;;7.97;0.80;;;16.80;99.90;;;;;;6270138;22;20023;-70
2022/07/14 07:10:27;;;;;;;3.78;1.08;;;16.80;99.90;;;;;;6265976;22;20354;-70
2022/07/14 07:12:53;;;;;;;3.80;0.68;;;16.80;99.90;;;;;;6269869;22;20049;-70
2022/07/14 07:15:20;;;;;;;4.53;1.10;;;16.70;99.90;;;;;;6240624;22;20438;-70
2022/07/14 07:17:46;;;;;;;8.40;1.25;;;16.70;99.90;;;;;;6268540;22;20046;-69
2022/07/14 07:20:11;;;;;;;2.28;0.80;;;16.60;99.90;;;;;;6267532;22;20458;-69
2022/07/14 07:22:38;;;;;;;9.75;1.40;;;16.50;99.90;;;;;;6266302;22;20142;-70
2022/07/14 07:25:07;;;;;;;8.65;1.20;;;16.50;99.90;;;;;;6268261;22;20051;-70
2022/07/14 07:27:33;;;;;;;3.10;0.80;;;16.70;99.90;;;;;;6265869;22;20098;-70
2022/07/14 07:30:00;;;;;;;5.95;1.00;;;16.80;99.90;;;;;;6268052;22;20162;-70
2022/07/14 07:32:26;;;;;;;1.58;0.57;;;16.90;99.90;;;;;;6240368;22;20351;-70
2022/07/14 07:34:52;;;;;;;5.88;0.70;;;17.20;99.90;;;;;;6267761;22;20019;-70
2022/07/14 07:37:18;;;;;;;0.73;0.30;;;17.30;93.90;;;;;;6266304;22;20030;-70
2022/07/14 07:39:43;;;;;;;2.88;0.70;;;17.60;96.30;;;;;;6267436;22;20015;-70
2022/07/14 07:42:10;;;;;;;5.20;0.85;;;17.70;97.30;;;;;;6242176;22;20054;-70
2022/07/14 07:44:36;;;;;;;3.78;0.80;;;17.70;97.90;;;;;;6265602;22;20480;-70
2022/07/14 07:47:03;;;;;;;6.10;0.90;;;17.80;97.50;;;;;;6267512;22;20536;-70
2022/07/14 07:49:29;;;;;;;3.42;0.70;;;18.10;99.50;;;;;;6265602;22;20031;-69
2022/07/14 07:51:59;;;;;;;2.63;1.00;;;18.20;98.10;;;;;;6267545;22;20343;-70
2022/07/14 07:54:25;;;;;;;2.35;0.70;;;18.10;91.30;;;;;;6265286;22;20094;-70
2022/07/14 07:56:51;;;;;;;3.47;1.20;;;17.70;90.50;;;;;;6267019;22;20022;-70
2022/07/14 07:59:17;;;;;;;4.88;0.90;;;17.50;96.60;;;;;;6267114;22;20346;-70
2022/07/14 08:01:42;;;;;;;4.95;0.90;;;17.30;99.90;;;;;;6265884;22;20016;-70
2022/07/14 08:04:08;;;;;;;3.40;0.90;;;17.30;98.10;;;;;;6216712;22;20058;-70
2022/07/14 08:06:35;;;;;;;2.40;0.60;;;17.50;99.90;;;;;;6264992;22;20091;-70
2022/07/14 08:09:02;;;;;;;3.80;0.93;;;17.70;99.00;;;;;;6267164;22;20051;-69
2022/07/14 08:11:28;;;;;;;5.30;0.90;;;18.20;96.50;;;;;;6264680;22;20038;-69
2022/07/14 08:13:54;;;;;;;3.92;0.90;;;18.60;93.10;;;;;;6266323;22;20117;-69
2022/07/14 08:16:19;;;;;;;6.72;1.00;;;18.60;91.90;;;;;;6265317;22;20027;-69
2022/07/14 08:18:46;;;;;;;4.65;1.30;;;18.80;92.80;;;;;;6266309;22;20098;-70
2022/07/14 08:21:12;;;;;;;5.00;0.68;;;18.70;92.00;;;;;;6267399;22;20114;-70
2022/07/14 08:23:38;;;;;;;4.47;0.90;;;18.80;90.50;;;;;;6264751;22;20804;-70
2022/07/14 08:26:04;;;;;;;1.70;0.57;;;18.90;90.10;;;;;;6266770;22;20024;-70
2022/07/14 08:28:30;;;;;;;2.38;1.15;;;18.60;90.80;;;;;;6238988;22;20450;-69
2022/07/14 08:30:56;;;;;;;4.13;0.98;;;18.40;90.50;;;;;;6266778;22;20030;-69
2022/07/14 08:33:21;;;;;;;2.00;0.47;;;18.20;94.40;;;;;;6239588;22;20012;-70
2022/07/14 08:35:47;;;;;;;5.38;1.05;;;18.10;95.20;;;;;;6215665;22;20082;-69
2022/07/14 08:38:13;;;;;;;2.00;0.68;;;18.40;93.60;;;;;;6266113;22;20055;-69
2022/07/14 08:40:39;;;;;;;5.40;0.90;;;18.50;93.90;;;;;;6239538;22;20442;-70
2022/07/14 08:43:05;;;;;;;2.83;0.90;;;18.50;96.90;;;;;;6269062;22;20051;-70
2022/07/14 08:45:39;;;;;;;5.00;1.38;;;18.40;95.60;;;;;;6265220;22;20020;-69
2022/07/14 08:48:05;;;;;;;4.38;0.73;;;18.40;90.10;;;;;;6267252;22;20015;-69
2022/07/14 08:50:32;;;;;;;5.50;0.80;;;18.60;92.00;;;;;;6214668;22;20019;-69
2022/07/14 08:53:03;;;;;;;5.40;0.82;;;18.90;77.90;;;;;;6267155;22;20365;-70
2022/07/14 08:55:30;;;;;;;5.15;0.73;;;19.00;91.90;;;;;;6266792;22;20220;-69
2022/07/14 08:57:56;;;;;;;5.18;0.80;;;18.80;95.50;;;;;;6265723;22;20074;-69
2022/07/14 09:00:22;;;;;;;2.83;0.50;;;18.60;93.10;;;;;;6267314;22;20016;-70
2022/07/14 09:02:51;;;;;;;2.22;0.57;;;18.50;91.30;;;;;;6265771;22;20529;-70
2022/07/14 09:05:17;;;;;;;4.50;0.90;;;18.40;90.00;;;;;;6267316;22;20024;-69
2022/07/14 09:07:43;;;;;;;2.08;0.65;;;18.30;87.50;;;;;;6265171;22;20397;-70
2022/07/14 09:10:11;;;;;;;3.08;0.60;;;18.30;90.90;;;;;;6267486;22;20055;-70
2022/07/14 09:12:38;;;;;;;1.85;0.77;;;18.40;86.30;;;;;;6266786;22;20016;-70
2022/07/14 09:17:58;;;;;;;3.80;0.80;;;18.70;80.00;;;;;;6267449;22;20478;-70
2022/07/14 09:20:25;;;;;;;1.70;0.45;;;18.70;88.40;;;;;;6266127;22;20398;-69
2022/07/14 09:22:56;;;;;;;2.47;0.85;;;18.70;90.30;;;;;;6241803;22;20027;-69
2022/07/14 09:25:23;;;;;;;3.13;0.73;;;18.80;92.80;;;;;;6267802;22;20058;-70
2022/07/14 09:27:49;;;;;;;3.00;0.80;;;18.70;90.90;;;;;;6267699;22;20099;-69
2022/07/14 09:30:16;;;;;;;3.92;0.45;;;18.60;85.00;;;;;;6264468;22;20022;-70
2022/07/14 09:32:56;;;;;;;1.42;0.40;;;18.40;89.00;;;;;;6266715;22;20015;-69
2022/07/14 09:35:37;;;;;;;2.60;0.60;;;18.40;91.20;;;;;;6268831;22;20160;-70
2022/07/14 09:38:19;;;;;;;4.60;0.68;;;18.50;94.00;;;;;;6242146;22;20359;-70
2022/07/14 09:40:47;;;;;;;3.42;0.93;;;18.70;93.50;;;;;;6267757;22;20356;-69
2022/07/14 09:43:14;;;;;;;2.45;0.68;;;18.80;79.50;;;;;;6268584;22;20020;-69
2022/07/14 09:45:45;;;;;;;3.00;0.60;;;19.00;90.70;;;;;;6266837;22;20579;-69
2022/07/14 09:48:14;;;;;;;0.93;0.50;;;18.90;87.50;;;;;;6268970;22;20454;-70
2022/07/14 09:50:41;;;;;;;5.03;0.65;;;18.80;87.00;;;;;;6266835;22;20433;-70
2022/07/14 09:53:13;;;;;;;5.13;0.82;;;19.00;89.90;;;;;;6269286;22;20095;-69
2022/07/14 09:55:40;;;;;;;0.55;0.40;;;19.20;82.60;;;;;;6268033;22;20024;-70
2022/07/14 09:58:09;;;;;;;2.60;0.68;;;19.20;84.40;;;;;;6268125;22;20351;-69
2022/07/14 10:00:36;;;;;;;4.63;0.93;;;19.10;87.70;;;;;;6267616;22;20023;-69
2022/07/14 10:03:04;;;;;;;4.10;1.13;;;19.10;91.60;;;;;;6268332;22;20222;-70
2022/07/14 10:05:33;;;;;;;2.38;0.65;;;19.20;81.00;;;;;;6267183;22;20031;-69
2022/07/14 10:08:04;;;;;;;5.05;0.80;;;19.20;84.40;;;;;;6264850;22;20478;-69
2022/07/14 10:10:34;;;;;;;6.18;1.10;;;19.10;91.10;;;;;;6267878;22;20016;-70
2022/07/14 10:13:05;;;;;;;3.50;0.70;;;19.10;94.10;;;;;;6270305;22;20012;-70
2022/07/14 10:15:31;;;;;;;1.50;0.50;;;19.20;93.20;;;;;;6267190;22;20085;-69
2022/07/14 10:17:59;;;;;;;1.77;0.70;;;19.00;88.20;;;;;;6242700;22;20350;-69
2022/07/14 10:20:26;;;;;;;2.25;0.52;;;19.00;91.50;;;;;;6262030;22;20034;-70
2022/07/14 10:22:55;;;;;;;3.28;0.50;;;19.00;90.90;;;;;;6265069;22;20062;-70
2022/07/14 10:25:22;;;;;;;1.88;0.52;;;19.00;83.00;;;;;;6265304;22;20451;-70
2022/07/14 10:27:48;;;;;;;2.45;0.47;;;19.10;84.90;;;;;;6241868;22;20046;-71
2022/07/14 10:30:15;;;;;;;3.78;0.73;;;19.30;92.30;;;;;;6266987;22;20061;-70
2022/07/14 10:32:56;;;;;;;4.07;0.60;;;19.40;83.30;;;;;;6266786;22;20095;-70
2022/07/14 10:35:56;;;;;;;3.15;0.60;;;19.50;76.10;;;;;;6267577;22;20079;-70
2022/07/14 10:38:57;;;;;;;4.22;0.80;;;19.50;84.70;;;;;;6266790;22;20019;-70
2022/07/14 10:42:00;;;;;;;1.85;0.80;;;19.60;91.90;;;;;;6236171;22;20477;-70
2022/07/14 10:44:32;;;;;;;2.22;0.50;;;19.60;90.30;;;;;;6240323;22;20020;-69
2022/07/14 10:47:15;;;;;;;3.67;0.80;;;19.50;81.20;;;;;;6238566;22;20391;-70
2022/07/14 10:50:00;;;;;;;5.00;0.52;;;19.30;79.80;;;;;;6267054;22;20056;-69
2022/07/14 10:52:27;;;;;;;2.85;0.60;;;19.30;89.50;;;;;;6268350;22;20020;-70
2022/07/14 10:55:13;;;;;;;2.00;0.82;;;19.40;93.60;;;;;;6264843;22;20020;-70
2022/07/14 10:57:39;;;;;;;2.28;0.52;;;19.30;88.40;;;;;;6267690;22;20034;-70
2022/07/14 11:00:06;;;;;;;2.88;0.77;;;19.00;79.80;;;;;;6266628;22;20020;-70
2022/07/14 11:02:34;;;;;;;5.00;0.80;;;18.90;91.30;;;;;;6268115;22;20019;-69
2022/07/14 11:05:02;;;;;;;2.47;0.63;;;18.80;91.80;;;;;;6267115;22;20085;-70
2022/07/14 11:08:05;;;;;;;5.07;0.55;;;18.90;86.10;;;;;;6267108;22;20055;-69
2022/07/14 11:10:31;;;;;;;4.32;1.08;;;18.80;85.60;;;;;;6268316;22;20028;-70
2022/07/14 11:13:00;;;;;;;2.40;0.95;;;18.80;92.00;;;;;;6240178;22;20061;-69
2022/07/14 11:15:35;;;;;;;2.00;0.60;;;18.80;89.30;;;;;;6268322;22;20047;-70
2022/07/14 11:20:51;;;;;;;5.97;0.85;;;18.70;87.50;;;;;;6266038;22;20043;-69
2022/07/14 11:23:22;;;;;;;3.53;0.70;;;18.70;90.30;;;;;;6269521;22;20035;-70
2022/07/14 11:25:53;;;;;;;2.22;0.68;;;18.70;84.60;;;;;;6240636;22;20348;-69
2022/07/14 11:28:31;;;;;;;4.95;1.50;;;18.60;87.90;;;;;;6268059;22;20047;-70
2022/07/14 11:31:18;;;;;;;3.88;0.75;;;18.60;86.90;;;;;;6267192;22;20126;-70
2022/07/14 11:36:36;;;;;;;2.53;0.60;;;18.50;97.50;;;;;;6267684;22;20028;-70
2022/07/14 11:39:21;;;;;;;5.82;0.77;;;18.70;90.80;;;;;;6267217;22;20024;-70
2022/07/14 11:42:04;;;;;;;3.38;1.15;;;18.90;95.10;;;;;;6266179;22;20082;-70
2022/07/14 11:44:36;;;;;;;2.00;0.60;;;18.90;91.60;;;;;;6269614;22;20023;-69
2022/07/14 11:47:26;;;;;;;4.50;0.73;;;18.80;90.70;;;;;;6267932;22;20458;-69
2022/07/14 11:49:56;;;;;;;2.63;0.77;;;18.70;90.40;;;;;;6267485;22;20019;-71
2022/07/14 11:52:41;;;;;;;5.07;1.05;;;18.80;95.80;;;;;;6267463;22;20023;-70
2022/07/14 11:55:10;;;;;;;3.40;0.70;;;18.90;94.50;;;;;;6266090;22;20481;-70
2022/07/14 11:57:36;;;;;;;2.63;0.80;;;19.20;97.20;;;;;;6267945;22;20016;-70
2022/07/14 12:00:10;;;;;;;5.53;0.70;;;19.50;89.80;;;;;;6265402;22;20312;-70
2022/07/14 12:02:57;;;;;;;4.40;1.10;;;19.60;92.10;;;;;;6241953;22;20042;-70
2022/07/14 12:05:25;;;;;;;4.03;0.77;;;19.50;82.30;;;;;;6241378;22;20057;-69
2022/07/14 12:07:53;;;;;;;2.83;0.52;;;19.30;86.50;;;;;;6265843;22;20023;-70
2022/07/14 12:10:37;;;;;;;2.10;0.60;;;19.20;85.50;;;;;;6241809;22;20350;-70
2022/07/14 12:13:03;;;;;;;1.67;0.70;;;19.20;81.30;;;;;;6265408;22;20438;-70
2022/07/14 12:15:30;;;;;;;4.13;0.50;;;19.20;87.50;;;;;;6241020;22;20019;-69
2022/07/14 12:17:56;;;;;;;4.18;0.80;;;19.20;80.00;;;;;;6263303;22;20024;-70
2022/07/14 12:20:23;;;;;;;3.92;0.80;;;19.10;89.30;;;;;;6239851;22;20019;-70
2022/07/14 12:22:56;;;;;;;1.33;0.68;;;19.00;83.50;;;;;;6266522;22;20019;-70
2022/07/14 12:25:32;;;;;;;2.08;0.52;;;19.10;73.90;;;;;;6263605;22;20024;-70
2022/07/14 12:28:04;;;;;;;3.05;0.80;;;19.00;71.30;;;;;;6265392;22;20019;-70
2022/07/14 12:30:47;;;;;;;2.60;0.73;;;19.00;82.60;;;;;;6263876;22;20462;-70
2022/07/14 12:33:15;;;;;;;3.17;0.60;;;19.00;73.60;;;;;;6267356;22;20019;-69
2022/07/14 12:35:44;;;;;;;5.28;0.70;;;18.80;72.20;;;;;;6267169;22;20066;-70
2022/07/14 12:38:11;;;;;;;5.43;1.30;;;18.80;83.80;;;;;;6266349;22;20022;-71
2022/07/14 12:40:38;;;;;;;3.50;1.02;;;19.00;67.30;;;;;;6267388;22;20670;-70
2022/07/14 12:43:04;;;;;;;1.42;0.63;;;19.20;58.90;;;;;;6265263;22;20019;-70
2022/07/14 12:45:30;;;;;;;5.55;0.82;;;19.30;70.60;;;;;;6267509;22;20023;-70
2022/07/14 12:48:00;;;;;;;6.63;0.70;;;19.40;58.60;;;;;;6265472;22;20072;-69
2022/07/14 12:50:28;;;;;;;3.60;0.98;;;19.20;60.50;;;;;;6267388;22;20094;-70
2022/07/14 12:52:56;;;;;;;3.15;0.70;;;19.30;71.70;;;;;;6240826;22;20035;-69
2022/07/14 12:55:36;;;;;;;2.60;0.93;;;19.40;62.00;;;;;;6266382;22;20098;-70
2022/07/14 12:58:07;;;;;;;2.30;0.82;;;19.70;51.90;;;;;;6266510;22;20363;-70
2022/07/14 13:00:33;;;;;;;6.60;1.02;;;19.90;54.10;;;;;;6268034;22;20024;-70
2022/07/14 13:03:17;;;;;;;2.33;0.60;;;19.80;54.10;;;;;;6243169;22;20178;-70
2022/07/14 13:05:56;;;;;;;5.63;0.80;;;19.90;70.80;;;;;;6268600;22;20016;-70